Time;durP1;ratioP1;P1;durP2;ratioP2;P2;SDS_P1;SDS_P2;PMS_P1;PMS_P2;Temp;Humidity;BMP_temperature;BMP_pressure;BME280_temperature;BME280_humidity;BME280_pressure;Samples;Min_cycle;Max_cycle;Signal;HPM_P1;HPM_P2
2023/07/03 00:00:39;;;;;;;12.57;6.28;;;;;;;20.80;78.64;99115.38;3173467;27;20055;-69
2023/07/03 00:02:11;;;;;;;15.67;6.53;;;;;;;20.73;78.99;99112.47;3176260;27;20376;-68
2023/07/03 00:03:43;;;;;;;13.65;5.10;;;;;;;20.77;78.91;99116.50;3183620;27;20315;-69
2023/07/03 00:05:14;;;;;;;11.35;5.85;;;;;;;20.77;78.94;99120.97;3183714;27;20051;-69
2023/07/03 00:06:46;;;;;;;9.57;5.53;;;;;;;20.76;78.41;99116.66;3183439;27;20199;-68
2023/07/03 00:08:18;;;;;;;17.45;5.70;;;;;;;20.76;78.67;99116.66;3183858;27;20108;-68
2023/07/03 00:09:50;;;;;;;12.40;6.13;;;;;;;20.74;78.34;99108.06;3183539;27;20130;-69
2023/07/03 00:11:22;;;;;;;17.77;6.70;;;;;;;20.78;78.17;99119.97;3183773;27;20047;-69
2023/07/03 00:12:54;;;;;;;12.15;5.55;;;;;;;20.81;78.26;99123.16;3183829;27;20050;-69
2023/07/03 00:14:24;;;;;;;17.63;7.10;;;;;;;20.81;78.09;99123.16;3183863;27;20047;-69
2023/07/03 00:16:01;;;;;;;11.80;5.82;;;;;;;20.83;78.27;99120.38;3183645;27;20057;-69
2023/07/03 00:17:32;;;;;;;11.80;6.00;;;;;;;20.79;77.89;99116.34;3173028;27;20050;-69
2023/07/03 00:19:04;;;;;;;15.02;6.05;;;;;;;20.75;78.13;99122.94;3181145;27;20051;-69
2023/07/03 00:20:35;;;;;;;15.07;5.93;;;;;;;20.70;78.45;99119.91;3183626;27;20490;-69
2023/07/03 00:22:07;;;;;;;13.23;5.82;;;;;;;20.68;78.00;99126.19;3183443;27;20082;-69
2023/07/03 00:23:38;;;;;;;10.15;5.47;;;;;;;20.67;77.98;99123.69;3183262;27;20126;-69
2023/07/03 00:25:10;;;;;;;11.20;5.78;;;;;;;20.65;78.20;99126.47;3183389;27;20560;-69
2023/07/03 00:26:41;;;;;;;12.63;5.50;;;;;;;20.63;78.15;99127.63;3183252;27;20058;-69
2023/07/03 00:28:13;;;;;;;11.32;5.55;;;;;;;20.62;78.16;99132.06;3178285;27;20309;-70
2023/07/03 00:29:44;;;;;;;11.52;5.95;;;;;;;20.61;78.36;99126.91;3174988;27;20434;-69
2023/07/03 00:31:17;;;;;;;13.43;5.75;;;;;;;20.63;78.13;99130.25;3183675;27;20057;-69
2023/07/03 00:32:49;;;;;;;13.23;7.20;;;;;;;20.63;78.28;99128.44;3174174;27;20124;-69
2023/07/03 00:34:20;;;;;;;14.82;5.95;;;;;;;20.66;78.06;99125.50;3183371;27;20539;-69
2023/07/03 00:35:51;;;;;;;11.10;6.10;;;;;;;20.66;78.29;99128.13;3183052;27;20047;-69
2023/07/03 00:37:22;;;;;;;13.38;5.63;;;;;;;20.67;78.32;99129.81;3183333;27;20050;-69
2023/07/03 00:38:57;;;;;;;9.32;5.70;;;;;;;20.71;77.97;99126.88;3183530;27;20046;-69
2023/07/03 00:40:29;;;;;;;14.48;6.40;;;;;;;20.68;77.76;99131.47;3183421;27;20058;-69
2023/07/03 00:41:59;;;;;;;13.23;5.70;;;;;;;20.70;77.65;99127.84;3183388;27;20055;-69
2023/07/03 00:43:34;;;;;;;10.50;6.65;;;;;;;20.73;77.69;99128.34;3172212;27;20530;-69
2023/07/03 00:45:08;;;;;;;12.82;5.63;;;;;;;20.77;77.57;99134.22;3180723;27;20488;-69
2023/07/03 00:46:43;;;;;;;9.48;5.85;;;;;;;20.79;77.78;99137.50;3182916;27;20043;-69
2023/07/03 00:48:16;;;;;;;14.38;5.80;;;;;;;20.78;77.42;99136.69;3183334;27;20055;-69
2023/07/03 00:49:48;;;;;;;13.07;6.75;;;;;;;20.78;77.58;99136.69;3183369;27;20071;-69
2023/07/03 00:51:19;;;;;;;11.10;6.07;;;;;;;20.79;77.46;99137.50;3182947;27;20043;-69
2023/07/03 00:52:55;;;;;;;9.45;5.60;;;;;;;20.82;77.07;99138.06;3183031;27;20134;-68
2023/07/03 00:54:28;;;;;;;11.90;6.28;;;;;;;20.82;77.22;99140.72;3183623;27;20043;-70
2023/07/03 00:56:01;;;;;;;10.60;6.13;;;;;;;20.80;77.25;99136.56;3183226;27;20051;-69
2023/07/03 00:57:33;;;;;;;11.85;6.28;;;;;;;20.82;77.49;99137.22;3182874;27;20054;-69
2023/07/03 00:59:05;;;;;;;14.10;6.13;;;;;;;20.85;76.94;99140.41;3183120;27;20047;-69
2023/07/03 01:00:45;;;;;;;12.38;6.47;;;;;;;20.85;77.35;99136.91;3179913;27;20043;-69
2023/07/03 01:02:25;;;;;;;11.43;6.13;;;;;;;20.83;76.91;99130.94;3175271;27;20561;-69
2023/07/03 01:04:03;;;;;;;11.70;6.18;;;;;;;20.83;77.25;99144.19;3183052;27;20047;-69
2023/07/03 01:05:41;;;;;;;14.70;6.82;;;;;;;20.81;77.55;99136.38;3183173;27;20043;-69
2023/07/03 01:07:16;;;;;;;17.13;5.70;;;;;;;20.82;77.55;99142.50;3183181;27;20107;-68
2023/07/03 01:08:50;;;;;;;14.27;6.00;;;;;;;20.81;77.32;99139.03;3183088;27;20069;-68
2023/07/03 01:10:24;;;;;;;13.35;5.97;;;;;;;20.82;77.40;99138.06;3183070;27;20047;-68
2023/07/03 01:11:57;;;;;;;11.70;5.53;;;;;;;20.83;77.19;99134.44;3183172;27;20058;-70
2023/07/03 01:13:31;;;;;;;11.65;6.15;;;;;;;20.83;77.29;99134.44;3183069;27;20051;-70
2023/07/03 01:15:09;;;;;;;16.30;5.95;;;;;;;20.66;77.60;99106.97;3182914;27;20409;-70
2023/07/03 01:16:41;;;;;;;11.88;6.35;;;;;;;20.82;77.21;99131.91;3179819;27;20051;-70
2023/07/03 01:18:15;;;;;;;11.43;6.05;;;;;;;20.78;77.32;99138.50;3173190;27;20059;-70
2023/07/03 01:19:50;;;;;;;11.13;5.43;;;;;;;20.75;77.05;99131.69;3180453;27;20047;-69
2023/07/03 01:21:25;;;;;;;9.10;5.97;;;;;;;20.75;77.32;99136.16;3172215;27;20051;-69
2023/07/03 01:23:04;;;;;;;19.95;7.55;;;;;;;20.70;76.99;99133.13;3182806;28;20058;-70
2023/07/03 01:24:42;;;;;;;11.93;5.90;;;;;;;20.54;77.34;99113.47;3178426;28;20059;-69
2023/07/03 01:26:15;;;;;;;11.00;5.10;;;;;;;20.62;77.54;99141.84;3182902;28;20427;-69
2023/07/03 01:27:50;;;;;;;10.15;5.60;;;;;;;20.59;77.16;99137.66;3181820;28;20070;-71
2023/07/03 01:29:23;;;;;;;10.85;5.95;;;;;;;20.57;77.01;99134.31;3171134;28;20517;-69
2023/07/03 01:30:57;;;;;;;12.60;5.75;;;;;;;20.51;77.40;99131.44;3182998;28;20050;-69
2023/07/03 01:32:31;;;;;;;9.88;5.50;;;;;;;20.50;77.41;99130.59;3182562;28;20059;-69
2023/07/03 01:34:05;;;;;;;12.45;5.53;;;;;;;20.52;77.40;99136.59;3170520;28;20051;-69
2023/07/03 01:35:37;;;;;;;12.23;6.30;;;;;;;20.51;77.10;99134.06;3185273;27;20055;-69
2023/07/03 01:37:09;;;;;;;10.18;6.22;;;;;;;20.49;77.13;99136.03;3185395;27;20047;-69
2023/07/03 01:38:43;;;;;;;11.48;6.45;;;;;;;20.50;77.31;99138.53;3185461;27;20047;-69
2023/07/03 01:40:20;;;;;;;9.65;5.45;;;;;;;20.53;76.94;99137.41;3185505;27;20043;-69
2023/07/03 01:41:51;;;;;;;12.05;5.50;;;;;;;20.53;77.29;99140.06;3185345;27;20043;-69
2023/07/03 01:43:24;;;;;;;11.23;5.63;;;;;;;20.49;77.20;99128.09;3175712;27;20169;-69
2023/07/03 01:44:56;;;;;;;12.43;5.70;;;;;;;20.48;76.95;99132.56;3181646;27;20055;-69
2023/07/03 01:46:27;;;;;;;11.60;6.07;;;;;;;20.53;76.98;99138.28;3185632;27;20050;-69
2023/07/03 01:47:59;;;;;;;11.30;6.00;;;;;;;20.51;77.24;99150.75;3185354;27;20289;-69
2023/07/03 01:49:30;;;;;;;16.80;6.53;;;;;;;20.54;77.10;99147.84;3185125;27;20058;-69
2023/07/03 01:51:03;;;;;;;12.52;6.93;;;;;;;20.45;77.08;99140.78;3185281;27;20431;-69
2023/07/03 01:52:37;;;;;;;10.25;6.32;;;;;;;20.57;76.59;99155.50;3185583;27;20039;-69
2023/07/03 01:54:16;;;;;;;12.02;5.70;;;;;;;20.60;76.90;99154.38;3185225;27;20055;-69
2023/07/03 01:55:56;;;;;;;12.32;6.10;;;;;;;20.62;76.81;99149.75;3185291;27;20050;-69
2023/07/03 01:57:36;;;;;;;13.07;6.03;;;;;;;20.63;76.42;99151.41;3185098;27;20051;-69
2023/07/03 01:59:10;;;;;;;10.68;5.47;;;;;;;20.62;76.61;99155.06;3185258;27;20043;-70
2023/07/03 02:00:46;;;;;;;9.90;5.43;;;;;;;20.59;76.29;99150.91;3181306;27;20051;-69
2023/07/03 02:02:23;;;;;;;10.48;5.93;;;;;;;20.57;76.70;99152.84;3177775;27;20051;-69
2023/07/03 02:04:00;;;;;;;11.18;5.78;;;;;;;20.53;76.55;99154.13;3184898;27;20051;-69
2023/07/03 02:05:38;;;;;;;10.85;5.85;;;;;;;20.52;76.80;99156.88;3184916;27;20473;-69
2023/07/03 02:07:11;;;;;;;10.20;5.43;;;;;;;20.49;76.61;99157.19;3185272;27;20492;-69
2023/07/03 02:08:43;;;;;;;12.45;6.40;;;;;;;20.45;76.81;99162.78;3184730;27;20043;-70
2023/07/03 02:10:15;;;;;;;12.88;6.55;;;;;;;20.45;76.85;99156.66;3184647;27;20725;-69
2023/07/03 02:11:49;;;;;;;15.40;6.30;;;;;;;20.44;76.92;99160.28;3185107;27;20043;-69
2023/07/03 02:13:21;;;;;;;13.95;6.60;;;;;;;20.37;76.93;99154.72;3185261;27;20115;-69
2023/07/03 02:14:53;;;;;;;10.05;5.95;;;;;;;20.30;77.14;99151.03;3185030;27;20480;-69
2023/07/03 02:16:24;;;;;;;15.63;6.05;;;;;;;20.33;77.25;99163.13;3184082;27;20134;-69
2023/07/03 02:17:57;;;;;;;13.60;6.35;;;;;;;20.29;77.18;99164.38;3172895;27;20627;-69
2023/07/03 02:19:29;;;;;;;12.60;6.68;;;;;;;20.26;77.04;99170.81;3185180;27;20066;-69
2023/07/03 02:21:00;;;;;;;11.50;6.60;;;;;;;20.29;77.15;99167.03;3176878;27;20058;-69
2023/07/03 02:22:32;;;;;;;12.80;6.43;;;;;;;20.28;77.42;99171.47;3184739;27;20080;-69
2023/07/03 02:24:04;;;;;;;11.55;6.13;;;;;;;20.27;77.21;99161.06;3183370;27;20047;-69
2023/07/03 02:25:36;;;;;;;12.98;6.88;;;;;;;20.29;77.02;99177.59;3182892;27;20073;-69
2023/07/03 02:27:09;;;;;;;11.32;6.30;;;;;;;20.30;76.89;99166.88;3184824;27;20055;-68
2023/07/03 02:28:39;;;;;;;;;;;;;;;20.17;77.32;99172.53;3185222;27;20058;-69
2023/07/03 02:30:13;;;;;;;13.45;7.07;;;;;;;20.23;77.52;99173.72;3185035;27;19942;-68
2023/07/03 02:31:44;;;;;;;11.35;6.75;;;;;;;20.27;77.13;99167.19;3184847;27;20043;-70
2023/07/03 02:33:16;;;;;;;12.13;6.43;;;;;;;20.33;76.80;99179.00;3184928;27;20051;-70
2023/07/03 02:34:46;;;;;;;13.18;6.35;;;;;;;20.35;76.84;99175.22;3184727;27;20051;-70
2023/07/03 02:36:18;;;;;;;11.95;6.50;;;;;;;20.37;76.64;99175.06;3185064;27;20047;-70
2023/07/03 02:37:50;;;;;;;12.50;7.07;;;;;;;20.40;76.59;99178.25;3184571;27;20047;-69
2023/07/03 02:39:21;;;;;;;16.90;6.80;;;;;;;20.43;76.02;99185.88;3184717;27;20512;-70
2023/07/03 02:40:53;;;;;;;17.42;6.93;;;;;;;20.46;76.18;99184.75;3184934;27;20051;-71
2023/07/03 02:42:27;;;;;;;11.98;7.13;;;;;;;20.50;75.91;99193.22;3183476;27;20203;-70
2023/07/03 02:43:58;;;;;;;11.75;6.40;;;;;;;20.49;75.73;99196.84;3173249;27;20521;-69
2023/07/03 02:45:34;;;;;;;14.90;6.90;;;;;;;20.51;75.82;99200.19;3184873;27;20512;-69
2023/07/03 02:47:06;;;;;;;11.95;7.55;;;;;;;20.51;75.52;99197.53;3184721;27;20511;-69
2023/07/03 02:48:39;;;;;;;10.02;6.35;;;;;;;20.52;75.80;99193.91;3185474;27;20141;-70
2023/07/03 02:50:12;;;;;;;16.63;6.70;;;;;;;20.52;75.46;99202.72;3184555;27;20061;-70
2023/07/03 02:51:42;;;;;;;12.23;7.07;;;;;;;20.51;75.80;99203.66;3184744;27;20051;-70
2023/07/03 02:53:14;;;;;;;10.38;6.70;;;;;;;20.51;75.25;99201.03;3184444;27;20516;-70
2023/07/03 02:54:46;;;;;;;12.45;6.75;;;;;;;20.54;75.19;99198.13;3184845;27;20451;-70
2023/07/03 02:56:18;;;;;;;12.52;7.07;;;;;;;20.56;75.30;99198.81;3184480;27;20077;-70
2023/07/03 02:57:51;;;;;;;16.17;7.05;;;;;;;20.60;75.48;99191.41;3184221;27;20047;-69
2023/07/03 02:59:23;;;;;;;12.40;6.95;;;;;;;20.62;75.04;99192.91;3184619;27;20050;-69
2023/07/03 03:00:54;;;;;;;12.25;6.93;;;;;;;20.67;75.11;99195.09;3179087;27;20044;-71
2023/07/03 03:02:28;;;;;;;11.23;6.65;;;;;;;20.70;75.00;99193.97;3178651;27;20440;-69
2023/07/03 03:04:00;;;;;;;17.73;8.00;;;;;;;20.68;75.01;99184.38;3184506;27;20450;-69
2023/07/03 03:05:32;;;;;;;9.88;6.43;;;;;;;20.75;74.78;99192.56;3184732;27;20039;-69
2023/07/03 03:07:03;;;;;;;13.85;7.35;;;;;;;20.77;74.45;99182.66;3184091;27;20054;-69
2023/07/03 03:08:35;;;;;;;11.73;6.88;;;;;;;20.81;74.46;99193.78;3184194;27;20035;-69
2023/07/03 03:10:07;;;;;;;15.05;6.90;;;;;;;20.83;73.83;99190.00;3184161;27;20047;-69
2023/07/03 03:11:39;;;;;;;14.23;7.70;;;;;;;20.85;74.11;99197.78;3184596;27;20084;-69
2023/07/03 03:13:12;;;;;;;14.40;6.85;;;;;;;20.89;73.63;99196.50;3184366;27;20554;-69
2023/07/03 03:14:44;;;;;;;15.70;6.97;;;;;;;20.88;73.28;99192.19;3184497;27;20127;-69
2023/07/03 03:16:16;;;;;;;13.82;6.78;;;;;;;20.92;73.40;99196.22;3184466;27;20047;-69
2023/07/03 03:17:48;;;;;;;12.63;7.65;;;;;;;20.95;72.92;99200.38;3171380;27;20047;-69
2023/07/03 03:19:18;;;;;;;10.88;6.60;;;;;;;20.96;72.76;99202.84;3184609;27;20100;-70
2023/07/03 03:20:50;;;;;;;12.52;6.95;;;;;;;20.99;73.03;99191.97;3178534;27;20208;-70
2023/07/03 03:22:22;;;;;;;12.80;7.22;;;;;;;21.02;72.47;99196.97;3183073;27;20054;-70
2023/07/03 03:23:53;;;;;;;11.70;7.55;;;;;;;21.06;72.42;99203.63;3184147;27;20055;-70
2023/07/03 03:25:25;;;;;;;13.43;7.53;;;;;;;21.09;72.59;99202.50;3184111;27;20047;-70
2023/07/03 03:26:57;;;;;;;13.70;7.05;;;;;;;21.11;72.27;99206.63;3184286;27;20791;-70
2023/07/03 03:28:30;;;;;;;14.98;7.32;;;;;;;21.14;72.20;99203.69;3184398;27;20039;-70
2023/07/03 03:30:02;;;;;;;10.23;6.75;;;;;;;21.16;72.17;99208.03;3184016;27;20104;-69
2023/07/03 03:31:33;;;;;;;15.57;7.40;;;;;;;21.20;72.26;99206.72;3183962;27;20127;-70
2023/07/03 03:33:04;;;;;;;19.73;7.10;;;;;;;21.23;72.07;99203.78;3183893;27;20099;-69
2023/07/03 03:34:36;;;;;;;12.07;6.50;;;;;;;21.25;71.59;99212.41;3184402;27;20051;-69
2023/07/03 03:36:08;;;;;;;12.20;7.45;;;;;;;21.28;71.69;99209.44;3183852;27;20043;-70
2023/07/03 03:37:40;;;;;;;14.57;7.30;;;;;;;21.29;71.29;99214.56;3184124;27;20047;-69
2023/07/03 03:39:12;;;;;;;10.73;6.28;;;;;;;21.32;71.40;99213.44;3184099;27;20096;-70
2023/07/03 03:40:53;;;;;;;11.18;6.78;;;;;;;21.35;71.16;99213.16;3184234;27;20233;-70
2023/07/03 03:42:25;;;;;;;14.27;7.53;;;;;;;21.36;70.74;99222.81;3182490;27;20465;-70
2023/07/03 03:43:57;;;;;;;11.32;6.80;;;;;;;21.40;70.87;99220.69;3172268;27;20043;-70
2023/07/03 03:45:29;;;;;;;15.50;7.90;;;;;;;21.41;70.84;99227.63;3183977;27;20051;-70
2023/07/03 03:47:01;;;;;;;14.00;6.75;;;;;;;21.46;70.80;99223.53;3184408;27;20121;-70
2023/07/03 03:48:34;;;;;;;13.57;7.10;;;;;;;21.46;70.55;99215.59;3183908;27;20043;-70
2023/07/03 03:50:08;;;;;;;12.57;7.55;;;;;;;21.48;70.10;99218.09;3183791;27;20179;-70
2023/07/03 03:51:40;;;;;;;11.73;7.30;;;;;;;21.51;70.28;99215.97;3183890;27;20588;-70
2023/07/03 03:53:12;;;;;;;15.57;7.53;;;;;;;21.53;69.72;99219.31;3183842;27;20138;-70
2023/07/03 03:54:46;;;;;;;15.02;7.80;;;;;;;21.56;69.76;99221.66;3184081;27;20046;-70
2023/07/03 03:56:19;;;;;;;13.55;7.85;;;;;;;21.60;69.87;99226.63;3183881;27;20543;-70
2023/07/03 03:57:50;;;;;;;;;;;;;;;21.46;70.19;99231.47;3183662;27;20130;-70
2023/07/03 03:59:23;;;;;;;13.45;7.35;;;;;;;21.53;69.71;99229.91;3183992;27;19919;-70
2023/07/03 04:00:54;;;;;;;16.10;7.88;;;;;;;21.54;69.54;99225.44;3178072;27;20446;-70
2023/07/03 04:02:26;;;;;;;15.60;7.70;;;;;;;21.56;69.74;99237.53;3177747;27;20053;-70
2023/07/03 04:03:58;;;;;;;20.17;7.97;;;;;;;21.60;69.51;99232.75;3184251;27;20052;-69
2023/07/03 04:05:30;;;;;;;14.80;8.10;;;;;;;21.60;69.41;99229.28;3183759;27;20074;-70
2023/07/03 04:07:03;;;;;;;14.18;7.53;;;;;;;21.67;69.59;99232.97;3180424;27;20043;-69
2023/07/03 04:08:33;;;;;;;13.30;7.93;;;;;;;21.67;69.41;99238.28;3175085;27;20103;-69
2023/07/03 04:10:07;;;;;;;13.38;8.15;;;;;;;21.69;68.82;99234.50;3183827;27;20063;-70
2023/07/03 04:11:38;;;;;;;12.45;7.82;;;;;;;21.71;68.79;99237.81;3183815;27;20466;-70
2023/07/03 04:13:10;;;;;;;14.85;8.38;;;;;;;21.75;68.73;99233.03;3180385;27;20047;-70
2023/07/03 04:14:44;;;;;;;13.95;7.45;;;;;;;21.76;68.82;99237.34;3183667;27;20043;-70
2023/07/03 04:16:16;;;;;;;17.27;8.75;;;;;;;21.76;68.80;99235.53;3172822;27;20055;-70
2023/07/03 04:17:48;;;;;;;13.80;8.23;;;;;;;21.80;68.30;99239.53;3170969;27;20051;-70
2023/07/03 04:19:19;;;;;;;15.98;8.70;;;;;;;21.83;68.21;99237.56;3158102;28;20048;-70
2023/07/03 04:20:51;;;;;;;16.17;7.95;;;;;;;21.84;68.35;99237.41;3182133;27;20055;-70
2023/07/03 04:22:25;;;;;;;16.80;8.68;;;;;;;21.86;68.41;99238.09;3183810;27;20086;-70
2023/07/03 04:23:57;;;;;;;14.32;8.57;;;;;;;21.89;68.35;99235.13;3183113;27;20051;-70
2023/07/03 04:25:28;;;;;;;15.20;8.45;;;;;;;21.91;68.41;99240.25;3183662;27;20119;-70
2023/07/03 04:27:00;;;;;;;14.68;8.23;;;;;;;21.92;68.13;99241.94;3183404;27;20047;-70
2023/07/03 04:28:32;;;;;;;12.52;8.68;;;;;;;21.94;68.61;99245.25;3183628;27;20043;-70
2023/07/03 04:30:06;;;;;;;14.85;8.10;;;;;;;21.95;68.10;99241.63;3183257;27;20050;-70
2023/07/03 04:31:39;;;;;;;14.82;9.52;;;;;;;21.95;68.30;99247.75;3183313;27;20057;-69
2023/07/03 04:33:10;;;;;;;16.25;9.60;;;;;;;21.98;68.51;99246.63;3183477;27;20071;-69
2023/07/03 04:34:42;;;;;;;13.00;9.30;;;;;;;22.01;68.56;99243.66;3183440;27;20116;-70
2023/07/03 04:36:17;;;;;;;20.35;9.52;;;;;;;22.04;68.17;99249.47;3178099;27;20508;-70
2023/07/03 04:37:49;;;;;;;19.83;9.73;;;;;;;22.09;68.12;99249.00;3183290;27;20065;-70
2023/07/03 04:39:21;;;;;;;15.93;9.43;;;;;;;22.08;68.31;99251.81;3183388;27;20046;-70
2023/07/03 04:40:53;;;;;;;13.00;9.30;;;;;;;21.99;68.11;99227.91;3183386;27;20451;-70
2023/07/03 04:42:25;;;;;;;16.73;9.15;;;;;;;22.15;68.18;99260.78;3182195;27;20047;-69
2023/07/03 04:44:00;;;;;;;14.77;9.30;;;;;;;22.14;68.11;99245.88;3171633;28;20047;-70
2023/07/03 04:45:40;;;;;;;16.60;9.85;;;;;;;22.22;67.82;99264.53;3183377;27;20453;-70
2023/07/03 04:47:16;;;;;;;18.67;10.38;;;;;;;22.23;67.91;99256.41;3183080;27;20092;-69
2023/07/03 04:48:48;;;;;;;16.48;10.38;;;;;;;22.24;67.69;99258.09;3183278;27;20190;-70
2023/07/03 04:50:24;;;;;;;21.00;10.30;;;;;;;22.32;67.70;99264.41;3182570;27;20045;-70
2023/07/03 04:51:58;;;;;;;24.25;10.02;;;;;;;22.32;67.60;99265.25;3183336;27;20055;-70
2023/07/03 04:53:29;;;;;;;15.35;10.18;;;;;;;22.34;67.20;99262.44;3183146;27;20047;-70
2023/07/03 04:55:01;;;;;;;15.77;10.32;;;;;;;22.36;66.85;99261.31;3183184;27;20077;-70
2023/07/03 04:56:34;;;;;;;15.48;9.85;;;;;;;22.39;66.72;99268.09;3183089;27;20051;-70
2023/07/03 04:58:07;;;;;;;18.27;10.60;;;;;;;22.38;66.64;99266.44;3182586;27;20111;-69
2023/07/03 04:59:41;;;;;;;18.33;10.80;;;;;;;22.40;67.03;99267.13;3183116;27;20512;-69
2023/07/03 05:01:14;;;;;;;14.90;10.13;;;;;;;22.44;66.68;99269.28;3174300;27;20582;-69
2023/07/03 05:02:49;;;;;;;19.08;10.05;;;;;;;22.49;66.71;99271.47;3179913;27;20086;-69
2023/07/03 05:04:20;;;;;;;14.15;9.65;;;;;;;22.49;66.63;99274.13;3183120;27;20123;-68
2023/07/03 05:05:52;;;;;;;16.80;10.32;;;;;;;22.52;66.40;99275.63;3183024;27;20142;-69
2023/07/03 05:07:24;;;;;;;19.08;11.05;;;;;;;22.55;66.50;99273.50;3182786;27;20107;-68
2023/07/03 05:08:56;;;;;;;18.90;10.90;;;;;;;22.59;65.83;99280.13;3181300;27;20084;-69
2023/07/03 05:10:26;;;;;;;20.30;11.18;;;;;;;22.61;65.76;99274.69;3169728;27;20134;-69
2023/07/03 05:11:58;;;;;;;18.00;10.20;;;;;;;22.63;66.02;99284.16;3182565;27;20173;-69
2023/07/03 05:13:30;;;;;;;18.33;10.52;;;;;;;22.65;65.64;99274.19;3180239;27;20072;-69
2023/07/03 05:15:03;;;;;;;17.52;10.40;;;;;;;22.67;65.80;99279.34;3182866;27;20066;-69
2023/07/03 05:16:36;;;;;;;20.17;11.40;;;;;;;22.74;65.49;99284.84;3180447;27;20055;-69
2023/07/03 05:18:08;;;;;;;19.13;11.52;;;;;;;22.76;65.34;99289.00;3172158;28;20436;-69
2023/07/03 05:19:40;;;;;;;18.20;12.15;;;;;;;22.77;65.25;99273.91;3182647;28;20050;-69
2023/07/03 05:21:12;;;;;;;17.58;11.30;;;;;;;22.80;65.38;99271.75;3181993;27;20063;-69
2023/07/03 05:22:45;;;;;;;18.83;11.70;;;;;;;22.86;65.08;99280.91;3173280;27;20052;-69
2023/07/03 05:24:17;;;;;;;;;;;;;;;22.74;65.75;99284.84;3158020;28;20056;-70
2023/07/03 05:25:49;;;;;;;17.10;11.10;;;;;;;22.83;65.63;99271.44;3181512;28;19930;-69
2023/07/03 05:27:20;;;;;;;19.75;11.70;;;;;;;22.87;64.93;99272.78;3183153;28;20047;-70
2023/07/03 05:28:52;;;;;;;16.70;11.30;;;;;;;22.97;65.27;99279.81;3178739;28;20490;-70
2023/07/03 05:30:24;;;;;;;16.63;11.73;;;;;;;23.01;64.73;99275.81;3177029;28;20051;-70
2023/07/03 05:31:57;;;;;;;15.98;11.80;;;;;;;23.03;64.33;99284.47;3182776;28;20050;-70
2023/07/03 05:33:30;;;;;;;21.75;11.55;;;;;;;22.97;64.38;99277.97;3182881;28;20043;-70
2023/07/03 05:35:03;;;;;;;18.98;12.05;;;;;;;23.06;64.37;99278.84;3182557;28;20116;-70
2023/07/03 05:36:35;;;;;;;14.55;10.55;;;;;;;23.06;63.79;99282.31;3182649;28;20043;-70
2023/07/03 05:38:07;;;;;;;21.00;12.18;;;;;;;23.10;63.90;99285.47;3182628;28;20123;-67
2023/07/03 05:39:39;;;;;;;19.35;12.13;;;;;;;23.17;63.66;99283.84;3182819;28;20569;-68
2023/07/03 05:41:11;;;;;;;16.42;12.07;;;;;;;23.21;63.95;99284.34;3182408;28;20055;-68
2023/07/03 05:42:43;;;;;;;23.13;12.27;;;;;;;23.26;63.49;99288.19;3178332;28;20074;-68
2023/07/03 05:44:15;;;;;;;17.40;12.57;;;;;;;23.29;63.66;99282.53;3173051;28;20500;-69
2023/07/03 05:45:48;;;;;;;18.75;13.05;;;;;;;23.36;63.39;99280.06;3182680;28;20047;-68
2023/07/03 05:47:21;;;;;;;16.38;11.95;;;;;;;23.42;62.78;99283.88;3182356;28;20054;-68
2023/07/03 05:48:53;;;;;;;;;;;;;;;23.30;63.56;99286.84;3183039;28;20496;-68
2023/07/03 05:50:23;;;;;;;21.98;13.40;;;;;;;23.41;62.95;99292.88;3182623;28;20248;-68
2023/07/03 05:51:55;;;;;;;20.65;12.35;;;;;;;23.44;62.84;99272.09;3182802;28;20047;-69
2023/07/03 05:53:27;;;;;;;21.17;12.80;;;;;;;23.55;62.20;99271.78;3182760;28;20075;-69
2023/07/03 05:54:59;;;;;;;18.67;13.05;;;;;;;23.58;62.34;99283.91;3182150;28;20058;-68
2023/07/03 05:56:31;;;;;;;17.95;12.43;;;;;;;23.65;62.19;99284.91;3182619;28;20047;-69
2023/07/03 05:58:03;;;;;;;19.80;13.55;;;;;;;23.71;61.88;99289.59;3172104;28;20064;-68
2023/07/03 05:59:36;;;;;;;17.97;13.03;;;;;;;23.74;61.84;99283.09;3179584;28;20463;-68
2023/07/03 06:01:08;;;;;;;21.60;12.73;;;;;;;23.80;61.31;99283.25;3174883;28;20316;-69
2023/07/03 06:02:43;;;;;;;23.90;13.70;;;;;;;23.87;60.68;99287.91;3178753;28;20439;-69
2023/07/03 06:04:15;;;;;;;18.20;12.18;;;;;;;23.88;60.67;99289.59;3182184;28;20427;-69
2023/07/03 06:05:47;;;;;;;17.02;12.05;;;;;;;23.93;60.75;99284.59;3176630;28;20050;-69
2023/07/03 06:07:18;;;;;;;20.83;13.05;;;;;;;23.98;60.48;99290.22;3176164;28;20043;-69
2023/07/03 06:08:50;;;;;;;16.70;12.63;;;;;;;24.02;60.55;99292.41;3182438;28;20051;-69
2023/07/03 06:10:23;;;;;;;18.08;12.80;;;;;;;24.06;60.39;99299.03;3175510;28;20061;-69
2023/07/03 06:11:56;;;;;;;21.50;13.93;;;;;;;24.05;60.27;99286.75;3182739;28;20487;-68
2023/07/03 06:13:27;;;;;;;19.85;13.45;;;;;;;24.12;60.19;99294.88;3182501;28;20135;-69
2023/07/03 06:15:01;;;;;;;17.70;13.38;;;;;;;24.16;59.46;99292.72;3182577;28;20061;-68
2023/07/03 06:16:34;;;;;;;21.58;13.32;;;;;;;24.14;59.67;99284.09;3180050;28;20127;-69
2023/07/03 06:18:07;;;;;;;18.13;13.73;;;;;;;24.20;59.62;99284.22;3169481;28;20452;-69
2023/07/03 06:19:39;;;;;;;;;;;;;;;24.13;59.78;99285.88;3171714;28;20479;-69
2023/07/03 06:21:10;;;;;;;20.38;12.95;;;;;;;24.26;60.08;99288.88;3184124;27;19923;-69
2023/07/03 06:22:43;;;;;;;18.40;13.05;;;;;;;24.37;59.59;99284.19;3184741;27;20055;-69
2023/07/03 06:24:16;;;;;;;21.88;14.27;;;;;;;24.45;59.62;99289.50;3185223;27;20096;-69
2023/07/03 06:25:48;;;;;;;;;;;;;;;24.38;59.77;99285.84;3185586;27;20044;-68
2023/07/03 06:27:20;;;;;;;20.27;14.02;;;;;;;24.46;59.44;99291.16;3184908;27;19926;-68
2023/07/03 06:28:52;;;;;;;22.10;14.57;;;;;;;24.55;58.87;99291.97;3184872;27;20054;-69
2023/07/03 06:30:23;;;;;;;18.40;13.75;;;;;;;24.56;58.48;99289.16;3184724;27;20055;-69
2023/07/03 06:31:54;;;;;;;21.35;14.63;;;;;;;24.57;57.83;99289.97;3184655;27;20043;-69
2023/07/03 06:33:27;;;;;;;19.08;13.52;;;;;;;24.62;57.77;99298.28;3184685;27;20453;-69
2023/07/03 06:34:59;;;;;;;20.42;14.68;;;;;;;24.64;57.62;99296.25;3184612;27;20577;-69
2023/07/03 06:36:32;;;;;;;19.25;14.02;;;;;;;24.68;57.57;99301.09;3184396;27;20096;-69
2023/07/03 06:38:04;;;;;;;18.15;14.52;;;;;;;24.63;57.71;99290.09;3184500;27;20100;-69
2023/07/03 06:39:38;;;;;;;18.90;14.70;;;;;;;24.79;57.30;99296.38;3184427;27;20043;-69
2023/07/03 06:41:10;;;;;;;22.15;14.38;;;;;;;24.84;57.36;99310.00;3180272;27;20505;-69
2023/07/03 06:42:42;;;;;;;25.45;14.10;;;;;;;24.88;57.29;99300.69;3175687;27;20064;-68
2023/07/03 06:44:16;;;;;;;22.25;14.90;;;;;;;24.94;57.08;99300.00;3184705;27;20058;-69
2023/07/03 06:45:48;;;;;;;24.77;14.65;;;;;;;25.01;57.08;99316.91;3184757;27;20047;-69
2023/07/03 06:47:20;;;;;;;18.45;14.48;;;;;;;25.00;56.77;99285.16;3184595;27;20054;-69
2023/07/03 06:48:54;;;;;;;23.15;14.68;;;;;;;25.17;56.30;99298.22;3184847;27;20047;-69
2023/07/03 06:50:26;;;;;;;17.02;13.77;;;;;;;25.24;56.57;99309.00;3184684;27;20456;-69
2023/07/03 06:51:57;;;;;;;22.45;15.00;;;;;;;25.28;56.23;99304.97;3184593;27;20046;-69
2023/07/03 06:53:29;;;;;;;19.80;14.60;;;;;;;25.33;55.93;99304.47;3184384;27;20051;-69
2023/07/03 06:55:01;;;;;;;21.48;15.27;;;;;;;25.37;55.65;99303.09;3184603;27;20055;-69
2023/07/03 06:56:32;;;;;;;18.75;13.23;;;;;;;25.42;55.52;99308.72;3184412;27;20077;-69
2023/07/03 06:58:04;;;;;;;20.88;14.05;;;;;;;25.46;55.73;99307.34;3184407;27;20047;-69
2023/07/03 06:59:36;;;;;;;20.33;14.70;;;;;;;25.50;55.21;99308.69;3184482;27;20055;-69
2023/07/03 07:01:10;;;;;;;21.45;14.20;;;;;;;25.56;55.31;99305.31;3177157;27;20054;-68
2023/07/03 07:02:41;;;;;;;21.75;14.93;;;;;;;25.60;55.07;99308.44;3180131;27;20123;-68
2023/07/03 07:04:15;;;;;;;20.33;14.93;;;;;;;25.69;55.24;99303.88;3184122;27;20054;-68
2023/07/03 07:05:47;;;;;;;18.20;14.07;;;;;;;25.75;55.19;99301.31;3179601;27;20138;-69
2023/07/03 07:07:19;;;;;;;21.27;14.27;;;;;;;25.80;54.86;99304.28;3178248;27;20500;-69
2023/07/03 07:08:51;;;;;;;19.27;13.68;;;;;;;25.87;54.89;99307.06;3184501;27;20051;-69
2023/07/03 07:10:24;;;;;;;21.13;14.70;;;;;;;25.92;54.57;99295.88;3184130;27;20047;-69